sensor_id;sensor_type;location;lat;lon;timestamp;P1;durP1;ratioP1;P2;durP2;ratioP2
51467;SDS011;37545;45.302;-122.946;2023-07-02T00:00:28;1.13;;;0.73;;
51467;SDS011;37545;45.302;-122.946;2023-07-02T00:02:58;3.33;;;0.80;;
51467;SDS011;37545;45.302;-122.946;2023-07-02T00:05:30;3.78;;;0.80;;
51467;SDS011;37545;45.302;-122.946;2023-07-02T00:07:58;1.73;;;1.00;;
51467;SDS011;37545;45.302;-122.946;2023-07-02T00:10:27;0.93;;;0.60;;
51467;SDS011;37545;45.302;-122.946;2023-07-02T00:12:55;2.60;;;0.85;;
51467;SDS011;37545;45.302;-122.946;2023-07-02T00:15:24;1.00;;;0.80;;
51467;SDS011;37545;45.302;-122.946;2023-07-02T00:17:52;4.10;;;1.10;;
51467;SDS011;37545;45.302;-122.946;2023-07-02T00:20:25;1.60;;;0.90;;
51467;SDS011;37545;45.302;-122.946;2023-07-02T00:22:55;1.48;;;0.90;;
51467;SDS011;37545;45.302;-122.946;2023-07-02T00:25:23;1.35;;;0.85;;
51467;SDS011;37545;45.302;-122.946;2023-07-02T00:27:52;4.38;;;1.42;;
51467;SDS011;37545;45.302;-122.946;2023-07-02T00:30:21;0.82;;;0.70;;
51467;SDS011;37545;45.302;-122.946;2023-07-02T00:32:49;1.38;;;0.80;;
51467;SDS011;37545;45.302;-122.946;2023-07-02T00:35:18;2.58;;;0.80;;
51467;SDS011;37545;45.302;-122.946;2023-07-02T00:37:46;1.13;;;0.88;;
51467;SDS011;37545;45.302;-122.946;2023-07-02T00:40:16;3.13;;;0.85;;
51467;SDS011;37545;45.302;-122.946;2023-07-02T00:42:45;3.28;;;1.00;;
51467;SDS011;37545;45.302;-122.946;2023-07-02T00:45:14;6.32;;;1.15;;
51467;SDS011;37545;45.302;-122.946;2023-07-02T00:47:42;1.42;;;0.90;;
51467;SDS011;37545;45.302;-122.946;2023-07-02T00:50:12;1.50;;;0.82;;
51467;SDS011;37545;45.302;-122.946;2023-07-02T00:52:41;2.38;;;0.90;;
51467;SDS011;37545;45.302;-122.946;2023-07-02T00:55:09;1.58;;;0.80;;
51467;SDS011;37545;45.302;-122.946;2023-07-02T00:57:40;2.55;;;0.68;;
51467;SDS011;37545;45.302;-122.946;2023-07-02T01:00:12;1.73;;;0.70;;
51467;SDS011;37545;45.302;-122.946;2023-07-02T01:02:41;1.60;;;0.90;;
51467;SDS011;37545;45.302;-122.946;2023-07-02T01:05:13;1.08;;;0.70;;
51467;SDS011;37545;45.302;-122.946;2023-07-02T01:07:42;1.42;;;0.80;;
51467;SDS011;37545;45.302;-122.946;2023-07-02T01:10:11;1.42;;;0.80;;
51467;SDS011;37545;45.302;-122.946;2023-07-02T01:12:41;1.10;;;0.70;;
51467;SDS011;37545;45.302;-122.946;2023-07-02T01:15:10;2.65;;;0.77;;
51467;SDS011;37545;45.302;-122.946;2023-07-02T01:17:39;1.55;;;0.80;;
51467;SDS011;37545;45.302;-122.946;2023-07-02T01:20:10;1.33;;;0.82;;
51467;SDS011;37545;45.302;-122.946;2023-07-02T01:22:43;2.85;;;0.80;;
51467;SDS011;37545;45.302;-122.946;2023-07-02T01:25:11;1.83;;;0.68;;
51467;SDS011;37545;45.302;-122.946;2023-07-02T01:27:42;1.70;;;0.73;;
51467;SDS011;37545;45.302;-122.946;2023-07-02T01:30:11;1.02;;;0.50;;
51467;SDS011;37545;45.302;-122.946;2023-07-02T01:32:40;2.25;;;0.63;;
51467;SDS011;37545;45.302;-122.946;2023-07-02T01:35:10;2.70;;;0.60;;
51467;SDS011;37545;45.302;-122.946;2023-07-02T01:37:38;0.85;;;0.50;;
51467;SDS011;37545;45.302;-122.946;2023-07-02T01:40:07;2.25;;;0.63;;
51467;SDS011;37545;45.302;-122.946;2023-07-02T01:42:37;3.25;;;0.70;;
51467;SDS011;37545;45.302;-122.946;2023-07-02T01:45:06;1.52;;;0.85;;
51467;SDS011;37545;45.302;-122.946;2023-07-02T01:47:36;1.65;;;0.50;;
51467;SDS011;37545;45.302;-122.946;2023-07-02T01:50:05;1.38;;;0.43;;
51467;SDS011;37545;45.302;-122.946;2023-07-02T01:52:36;2.70;;;0.60;;
51467;SDS011;37545;45.302;-122.946;2023-07-02T01:55:04;2.33;;;0.80;;
51467;SDS011;37545;45.302;-122.946;2023-07-02T01:57:33;1.48;;;0.60;;
51467;SDS011;37545;45.302;-122.946;2023-07-02T02:00:02;1.00;;;0.60;;
51467;SDS011;37545;45.302;-122.946;2023-07-02T02:02:32;1.60;;;0.70;;
51467;SDS011;37545;45.302;-122.946;2023-07-02T02:05:01;0.93;;;0.50;;
51467;SDS011;37545;45.302;-122.946;2023-07-02T02:07:29;3.28;;;0.70;;
51467;SDS011;37545;45.302;-122.946;2023-07-02T02:10:00;3.75;;;0.60;;
51467;SDS011;37545;45.302;-122.946;2023-07-02T02:12:28;1.55;;;0.60;;
51467;SDS011;37545;45.302;-122.946;2023-07-02T02:14:57;1.10;;;0.50;;
51467;SDS011;37545;45.302;-122.946;2023-07-02T02:17:25;1.13;;;0.60;;
51467;SDS011;37545;45.302;-122.946;2023-07-02T02:19:54;0.70;;;0.50;;
51467;SDS011;37545;45.302;-122.946;2023-07-02T02:22:22;0.93;;;0.50;;
51467;SDS011;37545;45.302;-122.946;2023-07-02T02:24:51;1.83;;;0.70;;
51467;SDS011;37545;45.302;-122.946;2023-07-02T02:27:21;1.00;;;0.70;;
51467;SDS011;37545;45.302;-122.946;2023-07-02T02:29:50;1.25;;;0.70;;
51467;SDS011;37545;45.302;-122.946;2023-07-02T02:32:18;5.72;;;0.70;;
51467;SDS011;37545;45.302;-122.946;2023-07-02T02:34:47;1.05;;;0.60;;
51467;SDS011;37545;45.302;-122.946;2023-07-02T02:37:15;1.63;;;0.60;;
51467;SDS011;37545;45.302;-122.946;2023-07-02T02:39:44;1.42;;;0.50;;
51467;SDS011;37545;45.302;-122.946;2023-07-02T02:42:13;1.15;;;0.60;;
51467;SDS011;37545;45.302;-122.946;2023-07-02T02:44:43;1.02;;;0.60;;
51467;SDS011;37545;45.302;-122.946;2023-07-02T02:47:11;1.90;;;0.63;;
51467;SDS011;37545;45.302;-122.946;2023-07-02T02:49:40;2.58;;;0.85;;
51467;SDS011;37545;45.302;-122.946;2023-07-02T02:52:09;1.00;;;0.45;;
51467;SDS011;37545;45.302;-122.946;2023-07-02T02:54:37;1.45;;;0.60;;
51467;SDS011;37545;45.302;-122.946;2023-07-02T02:57:06;0.50;;;0.40;;
51467;SDS011;37545;45.302;-122.946;2023-07-02T02:59:34;1.52;;;0.63;;
51467;SDS011;37545;45.302;-122.946;2023-07-02T03:02:05;2.65;;;0.77;;
51467;SDS011;37545;45.302;-122.946;2023-07-02T03:04:36;0.93;;;0.52;;
51467;SDS011;37545;45.302;-122.946;2023-07-02T03:07:05;0.80;;;0.50;;
51467;SDS011;37545;45.302;-122.946;2023-07-02T03:09:34;3.75;;;0.77;;
51467;SDS011;37545;45.302;-122.946;2023-07-02T03:12:03;3.05;;;0.60;;
51467;SDS011;37545;45.302;-122.946;2023-07-02T03:14:32;0.60;;;0.50;;
51467;SDS011;37545;45.302;-122.946;2023-07-02T03:17:00;0.98;;;0.68;;
51467;SDS011;37545;45.302;-122.946;2023-07-02T03:19:30;1.08;;;0.60;;
51467;SDS011;37545;45.302;-122.946;2023-07-02T03:21:59;1.10;;;0.50;;
51467;SDS011;37545;45.302;-122.946;2023-07-02T03:24:27;0.98;;;0.60;;
51467;SDS011;37545;45.302;-122.946;2023-07-02T03:26:56;0.82;;;0.52;;
51467;SDS011;37545;45.302;-122.946;2023-07-02T03:29:25;0.70;;;0.50;;
51467;SDS011;37545;45.302;-122.946;2023-07-02T03:31:55;1.40;;;0.60;;
51467;SDS011;37545;45.302;-122.946;2023-07-02T03:34:24;1.95;;;0.50;;
51467;SDS011;37545;45.302;-122.946;2023-07-02T03:36:54;1.10;;;0.60;;
51467;SDS011;37545;45.302;-122.946;2023-07-02T03:39:23;0.98;;;0.50;;
51467;SDS011;37545;45.302;-122.946;2023-07-02T03:41:51;0.90;;;0.70;;
51467;SDS011;37545;45.302;-122.946;2023-07-02T03:44:20;2.17;;;0.60;;
51467;SDS011;37545;45.302;-122.946;2023-07-02T03:46:48;0.82;;;0.65;;
51467;SDS011;37545;45.302;-122.946;2023-07-02T03:49:17;2.70;;;0.50;;
51467;SDS011;37545;45.302;-122.946;2023-07-02T03:51:46;0.98;;;0.65;;
51467;SDS011;37545;45.302;-122.946;2023-07-02T03:54:16;1.80;;;0.40;;
51467;SDS011;37545;45.302;-122.946;2023-07-02T03:56:45;1.83;;;0.68;;
51467;SDS011;37545;45.302;-122.946;2023-07-02T03:59:13;0.60;;;0.40;;
51467;SDS011;37545;45.302;-122.946;2023-07-02T04:01:42;2.10;;;0.68;;
51467;SDS011;37545;45.302;-122.946;2023-07-02T04:04:10;2.58;;;0.55;;
51467;SDS011;37545;45.302;-122.946;2023-07-02T04:06:39;0.90;;;0.50;;
51467;SDS011;37545;45.302;-122.946;2023-07-02T04:09:07;0.82;;;0.50;;
51467;SDS011;37545;45.302;-122.946;2023-07-02T04:11:37;1.35;;;0.57;;
51467;SDS011;37545;45.302;-122.946;2023-07-02T04:14:06;2.83;;;0.70;;
51467;SDS011;37545;45.302;-122.946;2023-07-02T04:16:34;1.50;;;0.40;;
51467;SDS011;37545;45.302;-122.946;2023-07-02T04:19:03;0.98;;;0.60;;
51467;SDS011;37545;45.302;-122.946;2023-07-02T04:21:32;0.90;;;0.50;;
51467;SDS011;37545;45.302;-122.946;2023-07-02T04:24:00;2.53;;;0.70;;
51467;SDS011;37545;45.302;-122.946;2023-07-02T04:26:29;0.65;;;0.40;;
51467;SDS011;37545;45.302;-122.946;2023-07-02T04:29:01;2.95;;;0.80;;
51467;SDS011;37545;45.302;-122.946;2023-07-02T04:31:30;1.17;;;0.60;;
51467;SDS011;37545;45.302;-122.946;2023-07-02T04:34:05;0.45;;;0.40;;
51467;SDS011;37545;45.302;-122.946;2023-07-02T04:36:34;4.97;;;0.68;;
51467;SDS011;37545;45.302;-122.946;2023-07-02T04:39:04;1.60;;;0.65;;
51467;SDS011;37545;45.302;-122.946;2023-07-02T04:41:33;3.53;;;0.60;;
51467;SDS011;37545;45.302;-122.946;2023-07-02T04:44:03;1.85;;;0.80;;
51467;SDS011;37545;45.302;-122.946;2023-07-02T04:46:32;2.20;;;0.60;;
51467;SDS011;37545;45.302;-122.946;2023-07-02T04:49:00;1.08;;;0.60;;
51467;SDS011;37545;45.302;-122.946;2023-07-02T04:51:35;1.40;;;0.60;;
51467;SDS011;37545;45.302;-122.946;2023-07-02T04:54:03;2.55;;;0.75;;
51467;SDS011;37545;45.302;-122.946;2023-07-02T04:56:32;1.13;;;0.60;;
51467;SDS011;37545;45.302;-122.946;2023-07-02T04:59:01;1.60;;;0.65;;
51467;SDS011;37545;45.302;-122.946;2023-07-02T05:01:31;1.75;;;0.40;;
51467;SDS011;37545;45.302;-122.946;2023-07-02T05:03:59;1.63;;;0.52;;
51467;SDS011;37545;45.302;-122.946;2023-07-02T05:06:28;1.13;;;0.60;;
51467;SDS011;37545;45.302;-122.946;2023-07-02T05:08:57;1.35;;;0.88;;
51467;SDS011;37545;45.302;-122.946;2023-07-02T05:11:25;1.10;;;0.60;;
51467;SDS011;37545;45.302;-122.946;2023-07-02T05:13:57;0.97;;;0.70;;
51467;SDS011;37545;45.302;-122.946;2023-07-02T05:16:27;0.77;;;0.60;;
51467;SDS011;37545;45.302;-122.946;2023-07-02T05:18:56;1.25;;;0.50;;
51467;SDS011;37545;45.302;-122.946;2023-07-02T05:21:24;0.93;;;0.45;;
51467;SDS011;37545;45.302;-122.946;2023-07-02T05:23:53;1.08;;;0.50;;
51467;SDS011;37545;45.302;-122.946;2023-07-02T05:26:21;2.25;;;0.60;;
51467;SDS011;37545;45.302;-122.946;2023-07-02T05:28:50;1.35;;;0.50;;
51467;SDS011;37545;45.302;-122.946;2023-07-02T05:31:18;0.85;;;0.50;;
51467;SDS011;37545;45.302;-122.946;2023-07-02T05:33:49;1.45;;;0.50;;
51467;SDS011;37545;45.302;-122.946;2023-07-02T05:36:17;1.00;;;0.50;;
51467;SDS011;37545;45.302;-122.946;2023-07-02T05:38:46;1.98;;;0.40;;
51467;SDS011;37545;45.302;-122.946;2023-07-02T05:41:18;5.15;;;0.30;;
51467;SDS011;37545;45.302;-122.946;2023-07-02T05:46:14;1.10;;;0.47;;
51467;SDS011;37545;45.302;-122.946;2023-07-02T05:48:47;4.32;;;0.52;;
51467;SDS011;37545;45.302;-122.946;2023-07-02T05:51:20;0.95;;;0.30;;
51467;SDS011;37545;45.302;-122.946;2023-07-02T05:53:49;0.80;;;0.40;;
51467;SDS011;37545;45.302;-122.946;2023-07-02T05:56:17;1.85;;;0.38;;
51467;SDS011;37545;45.302;-122.946;2023-07-02T05:58:46;0.60;;;0.40;;
51467;SDS011;37545;45.302;-122.946;2023-07-02T06:01:16;0.55;;;0.45;;
51467;SDS011;37545;45.302;-122.946;2023-07-02T06:03:44;0.38;;;0.30;;
51467;SDS011;37545;45.302;-122.946;2023-07-02T06:06:14;1.48;;;0.52;;
51467;SDS011;37545;45.302;-122.946;2023-07-02T06:08:43;0.40;;;0.30;;
51467;SDS011;37545;45.302;-122.946;2023-07-02T06:11:12;1.30;;;0.40;;
51467;SDS011;37545;45.302;-122.946;2023-07-02T06:13:40;0.38;;;0.38;;
51467;SDS011;37545;45.302;-122.946;2023-07-02T06:16:15;0.60;;;0.30;;
51467;SDS011;37545;45.302;-122.946;2023-07-02T06:18:44;0.55;;;0.38;;
51467;SDS011;37545;45.302;-122.946;2023-07-02T06:21:14;0.65;;;0.45;;
51467;SDS011;37545;45.302;-122.946;2023-07-02T06:23:43;0.32;;;0.20;;
51467;SDS011;37545;45.302;-122.946;2023-07-02T06:26:12;0.57;;;0.45;;
51467;SDS011;37545;45.302;-122.946;2023-07-02T06:28:40;0.30;;;0.30;;
51467;SDS011;37545;45.302;-122.946;2023-07-02T06:31:10;0.63;;;0.40;;
51467;SDS011;37545;45.302;-122.946;2023-07-02T06:33:39;1.65;;;0.35;;
51467;SDS011;37545;45.302;-122.946;2023-07-02T06:36:08;0.38;;;0.30;;
51467;SDS011;37545;45.302;-122.946;2023-07-02T06:38:38;0.30;;;0.30;;
51467;SDS011;37545;45.302;-122.946;2023-07-02T06:41:06;1.00;;;0.60;;
51467;SDS011;37545;45.302;-122.946;2023-07-02T06:43:35;0.47;;;0.38;;
51467;SDS011;37545;45.302;-122.946;2023-07-02T06:46:04;0.40;;;0.30;;
51467;SDS011;37545;45.302;-122.946;2023-07-02T06:48:32;0.73;;;0.35;;
51467;SDS011;37545;45.302;-122.946;2023-07-02T06:51:01;0.55;;;0.40;;
51467;SDS011;37545;45.302;-122.946;2023-07-02T06:53:29;0.50;;;0.40;;
51467;SDS011;37545;45.302;-122.946;2023-07-02T06:55:59;0.30;;;0.22;;
51467;SDS011;37545;45.302;-122.946;2023-07-02T06:58:28;1.42;;;0.40;;
51467;SDS011;37545;45.302;-122.946;2023-07-02T07:00:56;0.47;;;0.40;;
51467;SDS011;37545;45.302;-122.946;2023-07-02T07:03:25;0.60;;;0.38;;
51467;SDS011;37545;45.302;-122.946;2023-07-02T07:05:53;0.20;;;0.20;;
51467;SDS011;37545;45.302;-122.946;2023-07-02T07:08:22;2.17;;;0.40;;
51467;SDS011;37545;45.302;-122.946;2023-07-02T07:10:51;0.32;;;0.30;;
51467;SDS011;37545;45.302;-122.946;2023-07-02T07:13:21;0.60;;;0.43;;
51467;SDS011;37545;45.302;-122.946;2023-07-02T07:15:49;1.00;;;0.40;;
51467;SDS011;37545;45.302;-122.946;2023-07-02T07:18:18;1.08;;;0.40;;
51467;SDS011;37545;45.302;-122.946;2023-07-02T07:20:49;0.55;;;0.35;;
51467;SDS011;37545;45.302;-122.946;2023-07-02T07:23:18;2.22;;;0.40;;
51467;SDS011;37545;45.302;-122.946;2023-07-02T07:25:46;0.65;;;0.30;;
51467;SDS011;37545;45.302;-122.946;2023-07-02T07:28:15;0.75;;;0.15;;
51467;SDS011;37545;45.302;-122.946;2023-07-02T07:30:45;0.30;;;0.30;;
51467;SDS011;37545;45.302;-122.946;2023-07-02T07:33:14;0.73;;;0.30;;
51467;SDS011;37545;45.302;-122.946;2023-07-02T07:35:42;2.05;;;0.57;;
51467;SDS011;37545;45.302;-122.946;2023-07-02T07:38:12;1.08;;;0.43;;
51467;SDS011;37545;45.302;-122.946;2023-07-02T07:40:41;1.20;;;0.40;;
51467;SDS011;37545;45.302;-122.946;2023-07-02T07:43:13;0.98;;;0.30;;
51467;SDS011;37545;45.302;-122.946;2023-07-02T07:45:41;0.30;;;0.20;;
51467;SDS011;37545;45.302;-122.946;2023-07-02T07:48:11;0.77;;;0.15;;
51467;SDS011;37545;45.302;-122.946;2023-07-02T07:50:40;0.40;;;0.20;;
51467;SDS011;37545;45.302;-122.946;2023-07-02T07:53:16;1.27;;;0.30;;
51467;SDS011;37545;45.302;-122.946;2023-07-02T07:55:44;0.43;;;0.30;;
51467;SDS011;37545;45.302;-122.946;2023-07-02T07:58:13;0.50;;;0.40;;
51467;SDS011;37545;45.302;-122.946;2023-07-02T08:00:41;1.30;;;0.40;;
51467;SDS011;37545;45.302;-122.946;2023-07-02T08:03:11;0.55;;;0.22;;
51467;SDS011;37545;45.302;-122.946;2023-07-02T08:05:40;0.38;;;0.25;;
51467;SDS011;37545;45.302;-122.946;2023-07-02T08:08:08;0.82;;;0.35;;
51467;SDS011;37545;45.302;-122.946;2023-07-02T08:10:37;0.20;;;0.20;;
51467;SDS011;37545;45.302;-122.946;2023-07-02T08:13:05;1.48;;;0.30;;
51467;SDS011;37545;45.302;-122.946;2023-07-02T08:15:35;1.02;;;0.40;;
51467;SDS011;37545;45.302;-122.946;2023-07-02T08:18:05;1.40;;;0.38;;
51467;SDS011;37545;45.302;-122.946;2023-07-02T08:20:36;0.47;;;0.40;;
51467;SDS011;37545;45.302;-122.946;2023-07-02T08:23:05;0.60;;;0.20;;
51467;SDS011;37545;45.302;-122.946;2023-07-02T08:25:33;0.68;;;0.30;;
51467;SDS011;37545;45.302;-122.946;2023-07-02T08:28:05;0.70;;;0.30;;
51467;SDS011;37545;45.302;-122.946;2023-07-02T08:30:34;0.95;;;0.30;;
51467;SDS011;37545;45.302;-122.946;2023-07-02T08:33:02;0.30;;;0.30;;
51467;SDS011;37545;45.302;-122.946;2023-07-02T08:35:31;0.30;;;0.30;;
51467;SDS011;37545;45.302;-122.946;2023-07-02T08:38:01;0.50;;;0.20;;
51467;SDS011;37545;45.302;-122.946;2023-07-02T08:40:30;0.15;;;0.13;;
51467;SDS011;37545;45.302;-122.946;2023-07-02T08:42:58;0.65;;;0.40;;
51467;SDS011;37545;45.302;-122.946;2023-07-02T08:45:27;0.30;;;0.30;;
51467;SDS011;37545;45.302;-122.946;2023-07-02T08:47:56;0.43;;;0.30;;
51467;SDS011;37545;45.302;-122.946;2023-07-02T08:50:25;0.30;;;0.20;;
51467;SDS011;37545;45.302;-122.946;2023-07-02T08:52:55;0.45;;;0.20;;
51467;SDS011;37545;45.302;-122.946;2023-07-02T08:55:25;0.17;;;0.17;;
51467;SDS011;37545;45.302;-122.946;2023-07-02T08:57:55;0.20;;;0.17;;
51467;SDS011;37545;45.302;-122.946;2023-07-02T09:00:26;0.77;;;0.32;;
51467;SDS011;37545;45.302;-122.946;2023-07-02T09:02:56;0.95;;;0.32;;
51467;SDS011;37545;45.302;-122.946;2023-07-02T09:05:25;0.32;;;0.22;;
51467;SDS011;37545;45.302;-122.946;2023-07-02T09:07:53;7.75;;;0.38;;
51467;SDS011;37545;45.302;-122.946;2023-07-02T09:10:27;0.47;;;0.20;;
51467;SDS011;37545;45.302;-122.946;2023-07-02T09:13:02;0.45;;;0.30;;
51467;SDS011;37545;45.302;-122.946;2023-07-02T09:15:35;0.30;;;0.28;;
51467;SDS011;37545;45.302;-122.946;2023-07-02T09:18:14;0.75;;;0.30;;
51467;SDS011;37545;45.302;-122.946;2023-07-02T09:20:50;0.30;;;0.20;;
51467;SDS011;37545;45.302;-122.946;2023-07-02T09:23:19;0.35;;;0.20;;
51467;SDS011;37545;45.302;-122.946;2023-07-02T09:25:49;0.25;;;0.22;;
51467;SDS011;37545;45.302;-122.946;2023-07-02T09:28:18;0.63;;;0.30;;
51467;SDS011;37545;45.302;-122.946;2023-07-02T09:30:50;0.98;;;0.28;;
51467;SDS011;37545;45.302;-122.946;2023-07-02T09:33:22;1.55;;;0.40;;
51467;SDS011;37545;45.302;-122.946;2023-07-02T09:35:51;1.90;;;0.30;;
51467;SDS011;37545;45.302;-122.946;2023-07-02T09:38:20;0.17;;;0.17;;
51467;SDS011;37545;45.302;-122.946;2023-07-02T09:40:52;0.40;;;0.30;;
51467;SDS011;37545;45.302;-122.946;2023-07-02T09:43:21;0.30;;;0.30;;
51467;SDS011;37545;45.302;-122.946;2023-07-02T09:45:52;0.32;;;0.20;;
51467;SDS011;37545;45.302;-122.946;2023-07-02T09:48:25;0.75;;;0.22;;
51467;SDS011;37545;45.302;-122.946;2023-07-02T09:50:58;0.10;;;0.10;;
51467;SDS011;37545;45.302;-122.946;2023-07-02T09:53:28;0.38;;;0.20;;
51467;SDS011;37545;45.302;-122.946;2023-07-02T09:55:58;0.20;;;0.15;;
51467;SDS011;37545;45.302;-122.946;2023-07-02T09:58:28;0.17;;;0.13;;
51467;SDS011;37545;45.302;-122.946;2023-07-02T10:00:57;0.30;;;0.10;;
51467;SDS011;37545;45.302;-122.946;2023-07-02T10:03:29;0.10;;;0.10;;
51467;SDS011;37545;45.302;-122.946;2023-07-02T10:06:04;0.93;;;0.20;;
51467;SDS011;37545;45.302;-122.946;2023-07-02T10:08:33;0.30;;;0.20;;
51467;SDS011;37545;45.302;-122.946;2023-07-02T10:11:11;0.30;;;0.08;;
51467;SDS011;37545;45.302;-122.946;2023-07-02T10:13:40;0.65;;;0.30;;
51467;SDS011;37545;45.302;-122.946;2023-07-02T10:16:09;0.35;;;0.28;;
51467;SDS011;37545;45.302;-122.946;2023-07-02T10:18:38;1.67;;;0.20;;
51467;SDS011;37545;45.302;-122.946;2023-07-02T10:21:13;0.20;;;0.10;;
51467;SDS011;37545;45.302;-122.946;2023-07-02T10:23:42;1.33;;;0.30;;
51467;SDS011;37545;45.302;-122.946;2023-07-02T10:26:14;0.25;;;0.22;;
51467;SDS011;37545;45.302;-122.946;2023-07-02T10:28:55;0.73;;;0.28;;
51467;SDS011;37545;45.302;-122.946;2023-07-02T10:31:24;0.20;;;0.20;;
51467;SDS011;37545;45.302;-122.946;2023-07-02T10:33:53;0.20;;;0.20;;
51467;SDS011;37545;45.302;-122.946;2023-07-02T10:36:23;0.50;;;0.30;;
51467;SDS011;37545;45.302;-122.946;2023-07-02T10:38:52;0.25;;;0.25;;
51467;SDS011;37545;45.302;-122.946;2023-07-02T10:41:26;0.43;;;0.22;;
51467;SDS011;37545;45.302;-122.946;2023-07-02T10:44:04;1.35;;;0.20;;
51467;SDS011;37545;45.302;-122.946;2023-07-02T10:46:34;0.52;;;0.15;;
51467;SDS011;37545;45.302;-122.946;2023-07-02T10:49:10;0.63;;;0.30;;
51467;SDS011;37545;45.302;-122.946;2023-07-02T10:51:39;0.52;;;0.30;;
51467;SDS011;37545;45.302;-122.946;2023-07-02T10:54:07;0.20;;;0.10;;
51467;SDS011;37545;45.302;-122.946;2023-07-02T10:56:37;1.58;;;0.25;;
51467;SDS011;37545;45.302;-122.946;2023-07-02T10:59:08;0.25;;;0.25;;
51467;SDS011;37545;45.302;-122.946;2023-07-02T11:01:37;0.45;;;0.30;;
51467;SDS011;37545;45.302;-122.946;2023-07-02T11:04:05;0.50;;;0.30;;
51467;SDS011;37545;45.302;-122.946;2023-07-02T11:06:36;0.70;;;0.30;;
51467;SDS011;37545;45.302;-122.946;2023-07-02T11:09:14;2.25;;;0.40;;
51467;SDS011;37545;45.302;-122.946;2023-07-02T11:11:51;0.25;;;0.25;;
51467;SDS011;37545;45.302;-122.946;2023-07-02T11:14:27;0.65;;;0.40;;
51467;SDS011;37545;45.302;-122.946;2023-07-02T11:17:01;0.55;;;0.30;;
51467;SDS011;37545;45.302;-122.946;2023-07-02T11:19:31;0.30;;;0.30;;
51467;SDS011;37545;45.302;-122.946;2023-07-02T11:22:00;0.40;;;0.38;;
51467;SDS011;37545;45.302;-122.946;2023-07-02T11:24:30;0.90;;;0.47;;
51467;SDS011;37545;45.302;-122.946;2023-07-02T11:27:01;0.40;;;0.30;;
51467;SDS011;37545;45.302;-122.946;2023-07-02T11:29:31;0.45;;;0.20;;
51467;SDS011;37545;45.302;-122.946;2023-07-02T11:32:07;0.40;;;0.28;;
51467;SDS011;37545;45.302;-122.946;2023-07-02T11:34:36;0.20;;;0.20;;
51467;SDS011;37545;45.302;-122.946;2023-07-02T11:37:06;0.93;;;0.25;;
51467;SDS011;37545;45.302;-122.946;2023-07-02T11:39:35;0.82;;;0.30;;
51467;SDS011;37545;45.302;-122.946;2023-07-02T11:42:05;0.22;;;0.20;;
51467;SDS011;37545;45.302;-122.946;2023-07-02T11:44:34;0.43;;;0.40;;
51467;SDS011;37545;45.302;-122.946;2023-07-02T11:47:03;0.30;;;0.20;;
51467;SDS011;37545;45.302;-122.946;2023-07-02T11:49:31;0.30;;;0.30;;
51467;SDS011;37545;45.302;-122.946;2023-07-02T11:52:00;0.10;;;0.10;;
51467;SDS011;37545;45.302;-122.946;2023-07-02T11:54:29;0.35;;;0.20;;
51467;SDS011;37545;45.302;-122.946;2023-07-02T11:56:57;0.40;;;0.22;;
51467;SDS011;37545;45.302;-122.946;2023-07-02T11:59:29;0.40;;;0.20;;
51467;SDS011;37545;45.302;-122.946;2023-07-02T12:02:02;0.30;;;0.30;;
51467;SDS011;37545;45.302;-122.946;2023-07-02T12:04:31;0.20;;;0.20;;
51467;SDS011;37545;45.302;-122.946;2023-07-02T12:06:59;0.77;;;0.20;;
51467;SDS011;37545;45.302;-122.946;2023-07-02T12:09:29;0.32;;;0.30;;
51467;SDS011;37545;45.302;-122.946;2023-07-02T12:11:57;0.98;;;0.25;;
51467;SDS011;37545;45.302;-122.946;2023-07-02T12:14:28;0.47;;;0.40;;
51467;SDS011;37545;45.302;-122.946;2023-07-02T12:16:56;0.38;;;0.10;;
51467;SDS011;37545;45.302;-122.946;2023-07-02T12:19:25;1.20;;;0.30;;
51467;SDS011;37545;45.302;-122.946;2023-07-02T12:21:55;2.90;;;0.45;;
51467;SDS011;37545;45.302;-122.946;2023-07-02T12:24:24;0.25;;;0.20;;
51467;SDS011;37545;45.302;-122.946;2023-07-02T12:26:53;0.73;;;0.30;;
51467;SDS011;37545;45.302;-122.946;2023-07-02T12:29:21;0.65;;;0.30;;
51467;SDS011;37545;45.302;-122.946;2023-07-02T12:31:51;0.20;;;0.20;;
51467;SDS011;37545;45.302;-122.946;2023-07-02T12:34:20;0.55;;;0.20;;
51467;SDS011;37545;45.302;-122.946;2023-07-02T12:36:48;0.63;;;0.30;;
51467;SDS011;37545;45.302;-122.946;2023-07-02T12:39:17;0.60;;;0.40;;
51467;SDS011;37545;45.302;-122.946;2023-07-02T12:41:45;0.90;;;0.40;;
51467;SDS011;37545;45.302;-122.946;2023-07-02T12:44:14;0.15;;;0.10;;
51467;SDS011;37545;45.302;-122.946;2023-07-02T12:46:43;0.08;;;0.08;;
51467;SDS011;37545;45.302;-122.946;2023-07-02T12:49:13;0.50;;;0.38;;
51467;SDS011;37545;45.302;-122.946;2023-07-02T12:51:41;0.20;;;0.20;;
51467;SDS011;37545;45.302;-122.946;2023-07-02T12:54:10;1.35;;;0.40;;
51467;SDS011;37545;45.302;-122.946;2023-07-02T12:56:38;0.30;;;0.30;;
51467;SDS011;37545;45.302;-122.946;2023-07-02T12:59:07;0.57;;;0.25;;
51467;SDS011;37545;45.302;-122.946;2023-07-02T13:01:38;0.20;;;0.20;;
51467;SDS011;37545;45.302;-122.946;2023-07-02T13:04:07;0.40;;;0.30;;
51467;SDS011;37545;45.302;-122.946;2023-07-02T13:06:37;0.20;;;0.13;;
51467;SDS011;37545;45.302;-122.946;2023-07-02T13:09:06;0.40;;;0.30;;
51467;SDS011;37545;45.302;-122.946;2023-07-02T13:11:34;0.80;;;0.25;;
51467;SDS011;37545;45.302;-122.946;2023-07-02T13:14:03;0.40;;;0.30;;
51467;SDS011;37545;45.302;-122.946;2023-07-02T13:16:32;0.50;;;0.40;;
51467;SDS011;37545;45.302;-122.946;2023-07-02T13:19:00;0.40;;;0.32;;
51467;SDS011;37545;45.302;-122.946;2023-07-02T13:21:29;0.40;;;0.30;;
51467;SDS011;37545;45.302;-122.946;2023-07-02T13:23:59;1.15;;;0.35;;
51467;SDS011;37545;45.302;-122.946;2023-07-02T13:26:28;0.60;;;0.40;;
51467;SDS011;37545;45.302;-122.946;2023-07-02T13:28:57;0.60;;;0.30;;
51467;SDS011;37545;45.302;-122.946;2023-07-02T13:31:25;0.20;;;0.20;;
51467;SDS011;37545;45.302;-122.946;2023-07-02T13:33:54;0.60;;;0.30;;
51467;SDS011;37545;45.302;-122.946;2023-07-02T13:36:24;0.93;;;0.30;;
51467;SDS011;37545;45.302;-122.946;2023-07-02T13:38:54;0.40;;;0.40;;
51467;SDS011;37545;45.302;-122.946;2023-07-02T13:41:24;0.40;;;0.38;;
51467;SDS011;37545;45.302;-122.946;2023-07-02T13:43:58;0.32;;;0.20;;
51467;SDS011;37545;45.302;-122.946;2023-07-02T13:46:27;0.55;;;0.28;;
51467;SDS011;37545;45.302;-122.946;2023-07-02T13:48:55;0.77;;;0.77;;
51467;SDS011;37545;45.302;-122.946;2023-07-02T13:51:24;0.68;;;0.30;;
51467;SDS011;37545;45.302;-122.946;2023-07-02T13:53:52;0.40;;;0.22;;
51467;SDS011;37545;45.302;-122.946;2023-07-02T13:56:21;1.08;;;0.47;;
51467;SDS011;37545;45.302;-122.946;2023-07-02T13:59:04;0.47;;;0.30;;
51467;SDS011;37545;45.302;-122.946;2023-07-02T14:01:33;0.95;;;0.57;;
51467;SDS011;37545;45.302;-122.946;2023-07-02T14:04:01;0.20;;;0.15;;
51467;SDS011;37545;45.302;-122.946;2023-07-02T14:06:30;0.32;;;0.20;;
51467;SDS011;37545;45.302;-122.946;2023-07-02T14:08:59;0.55;;;0.28;;
51467;SDS011;37545;45.302;-122.946;2023-07-02T14:11:28;1.35;;;0.52;;
51467;SDS011;37545;45.302;-122.946;2023-07-02T14:13:57;0.52;;;0.32;;
51467;SDS011;37545;45.302;-122.946;2023-07-02T14:16:30;1.27;;;0.40;;
51467;SDS011;37545;45.302;-122.946;2023-07-02T14:18:59;1.02;;;0.22;;
51467;SDS011;37545;45.302;-122.946;2023-07-02T14:21:28;2.05;;;0.40;;
51467;SDS011;37545;45.302;-122.946;2023-07-02T14:23:57;0.82;;;0.40;;